Terminal Aerodrome Forecast
Issued by NWS Brownsville, TX

Home | Current Version | Previous Version | Text Only | Print | Product List | Glossary On
Versions: 1 2 3 4 5 6 7 8 9 10 11 12 13 14 15 16 17 18 19 20 21
000
FTUS44 KBRO 291120
TAFBRO
TAF
KBRO 291120Z 2912/3012 16021G29KT P6SM OVC017 WS020/18055KT
     FM291500 21012KT P6SM SCT020
     FM291800 04010KT P6SM FEW030
     FM300600 VRB02KT 4SM BR BKN015=

USA.gov is the U.S. government's official web portal to all federal, state and local government web resources and services.